Time;durP1;ratioP1;P1;durP2;ratioP2;P2;SDS_P1;SDS_P2;PMS_P1;PMS_P2;Temp;Humidity;BMP_temperature;BMP_pressure;BME280_temperature;BME280_humidity;BME280_pressure;Samples;Min_cycle;Max_cycle;Signal;HPM_P1;HPM_P2
2023/10/09 00:03:00;;;;;;;;;9.00;9.00;;;;;;;;5061626;28;10221;-83
2023/10/09 00:05:38;;;;;;;;;14.50;10.25;;;;;;;;5061419;28;11198;-82
2023/10/09 00:08:04;;;;;;;;;11.50;10.00;;;;;;;;5047394;28;10505;-83
2023/10/09 00:10:44;;;;;;;;;15.75;11.00;;;;;;;;5026066;28;10370;-83
2023/10/09 00:13:10;;;;;;;;;9.50;9.25;;;;;;;;5040585;28;8787;-82
2023/10/09 00:15:35;;;;;;;;;12.25;8.00;;;;;;;;5024524;28;10123;-83
2023/10/09 00:18:01;;;;;;;;;13.25;9.75;;;;;;;;5006927;28;10011;-83
2023/10/09 00:20:38;;;;;;;;;15.75;12.75;;;;;;;;5024626;28;8895;-83
2023/10/09 00:23:12;;;;;;;;;13.25;10.25;;;;;;;;5023339;28;8745;-83
2023/10/09 00:25:44;;;;;;;;;17.75;12.75;;;;;;;;5035923;28;10402;-83
2023/10/09 00:28:10;;;;;;;;;12.75;10.50;;;;;;;;5026243;28;10433;-83
2023/10/09 00:30:40;;;;;;;;;12.75;7.50;;;;;;;;5043392;28;11002;-83
2023/10/09 00:33:07;;;;;;;;;10.00;9.00;;;;;;;;5055479;28;8758;-83
2023/10/09 00:35:46;;;;;;;;;9.00;8.50;;;;;;;;5064178;28;10267;-83
2023/10/09 00:38:21;;;;;;;;;12.00;10.75;;;;;;;;5063759;28;10484;-83
2023/10/09 00:40:52;;;;;;;;;13.00;8.75;;;;;;;;5063289;28;10471;-83
2023/10/09 00:43:19;;;;;;;;;9.75;9.75;;;;;;;;5063276;28;10424;-83
2023/10/09 00:45:46;;;;;;;;;11.50;9.50;;;;;;;;5063970;28;10238;-83
2023/10/09 00:48:14;;;;;;;;;9.50;9.00;;;;;;;;5063678;28;10501;-84
2023/10/09 00:50:47;;;;;;;;;11.75;9.75;;;;;;;;5036549;28;10095;-83
2023/10/09 00:53:18;;;;;;;;;11.25;11.00;;;;;;;;5041554;28;10041;-83
2023/10/09 00:55:55;;;;;;;;;11.50;9.00;;;;;;;;5048292;28;10184;-83
2023/10/09 00:58:30;;;;;;;;;9.00;9.00;;;;;;;;5064008;28;10295;-84
2023/10/09 01:00:56;;;;;;;;;11.00;9.00;;;;;;;;5036892;28;11198;-83
2023/10/09 01:03:22;;;;;;;;;15.25;10.50;;;;;;;;5005811;28;10373;-83
2023/10/09 01:05:58;;;;;;;;;10.75;7.00;;;;;;;;5023819;28;8758;-83
2023/10/09 01:08:30;;;;;;;;;13.00;9.50;;;;;;;;5005138;28;10507;-83
2023/10/09 01:10:56;;;;;;;;;11.75;8.50;;;;;;;;5023716;28;10203;-83
2023/10/09 01:16:23;;;;;;;;;12.50;8.75;;;;;;;;5001070;28;8829;-83
2023/10/09 01:18:50;;;;;;;;;11.75;9.00;;;;;;;;5035710;28;10496;-83
2023/10/09 01:21:15;;;;;;;;;9.50;7.75;;;;;;;;5044495;28;8748;-83
2023/10/09 01:23:58;;;;;;;;;15.00;11.25;;;;;;;;5030273;28;10406;-83
2023/10/09 01:26:24;;;;;;;;;12.00;10.75;;;;;;;;5041351;28;8787;-83
2023/10/09 01:28:49;;;;;;;;;12.50;11.00;;;;;;;;5042215;28;10599;-83
2023/10/09 01:31:14;;;;;;;;;10.50;7.50;;;;;;;;5043050;28;8799;-83
2023/10/09 01:33:41;;;;;;;;;10.25;8.75;;;;;;;;5043052;28;8873;-84
2023/10/09 01:36:09;;;;;;;;;11.75;10.25;;;;;;;;5025357;28;8747;-83
2023/10/09 01:38:40;;;;;;;;;13.00;9.75;;;;;;;;5042523;28;10729;-83
2023/10/09 01:41:08;;;;;;;;;9.75;9.75;;;;;;;;5025160;28;10210;-83
2023/10/09 01:43:34;;;;;;;;;13.00;9.75;;;;;;;;5023002;28;10472;-83
2023/10/09 01:46:01;;;;;;;;;10.00;10.00;;;;;;;;5042745;28;11099;-83
2023/10/09 01:48:26;;;;;;;;;9.00;7.75;;;;;;;;5025325;28;10597;-83
2023/10/09 01:50:51;;;;;;;;;12.00;11.75;;;;;;;;5042542;28;10432;-83
2023/10/09 01:53:22;;;;;;;;;8.25;8.25;;;;;;;;5041015;28;9721;-83
2023/10/09 01:55:47;;;;;;;;;13.75;9.00;;;;;;;;5025190;28;10212;-84
2023/10/09 02:00:54;;;;;;;;;17.00;9.75;;;;;;;;5043225;28;8731;-84
2023/10/09 02:03:24;;;;;;;;;11.00;10.00;;;;;;;;5041382;28;10426;-84
2023/10/09 02:08:51;;;;;;;;;13.50;9.00;;;;;;;;4923862;29;10609;-83
2023/10/09 02:14:00;;;;;;;;;10.50;8.50;;;;;;;;4922639;29;10983;-83
2023/10/09 02:16:28;;;;;;;;;12.00;9.50;;;;;;;;4923689;29;11056;-83
2023/10/09 02:18:54;;;;;;;;;11.00;10.00;;;;;;;;4923598;29;8784;-84
2023/10/09 02:21:29;;;;;;;;;14.75;11.00;;;;;;;;4922899;29;10586;-83
2023/10/09 02:23:57;;;;;;;;;11.75;11.75;;;;;;;;4907873;29;10343;-84
2023/10/09 02:26:25;;;;;;;;;14.00;10.00;;;;;;;;4942229;28;10622;-84
2023/10/09 02:31:44;;;;;;;;;11.00;8.50;;;;;;;;4942548;29;10532;-83
2023/10/09 02:34:10;;;;;;;;;12.75;11.50;;;;;;;;4942160;29;10453;-83
2023/10/09 02:36:41;;;;;;;;;14.00;9.00;;;;;;;;4942161;29;10615;-84
2023/10/09 02:39:16;;;;;;;;;12.25;11.00;;;;;;;;4942335;29;11164;-83
2023/10/09 02:41:49;;;;;;;;;10.25;10.25;;;;;;;;4946349;28;10553;-83
2023/10/09 02:44:15;;;;;;;;;17.75;13.25;;;;;;;;5041520;28;10442;-83
2023/10/09 02:46:41;;;;;;;;;15.00;12.00;;;;;;;;5042202;28;10701;-84
2023/10/09 02:49:06;;;;;;;;;8.50;7.25;;;;;;;;5024392;28;10985;-84
2023/10/09 02:51:41;;;;;;;;;11.25;9.25;;;;;;;;5021025;28;8821;-83
2023/10/09 02:54:18;;;;;;;;;15.00;12.00;;;;;;;;5054301;28;8751;-84
2023/10/09 02:59:30;;;;;;;;;12.50;12.50;;;;;;;;5041971;28;10693;-83
2023/10/09 03:01:57;;;;;;;;;13.25;12.00;;;;;;;;5042030;28;10523;-83
2023/10/09 03:04:23;;;;;;;;;11.50;11.25;;;;;;;;5040262;28;8818;-84
2023/10/09 03:06:51;;;;;;;;;15.75;13.75;;;;;;;;5024369;28;10505;-84
2023/10/09 03:09:17;;;;;;;;;11.50;10.50;;;;;;;;5023786;28;10004;-83
2023/10/09 03:11:44;;;;;;;;;12.50;9.50;;;;;;;;5041141;28;10458;-83
2023/10/09 03:14:10;;;;;;;;;5.00;5.00;;;;;;;;5040069;28;10407;-84
2023/10/09 03:16:36;;;;;;;;;10.25;10.00;;;;;;;;5042047;28;11548;-83
2023/10/09 03:19:03;;;;;;;;;13.75;10.75;;;;;;;;5026373;28;10719;-83
2023/10/09 03:21:28;;;;;;;;;13.00;8.25;;;;;;;;5023939;28;8746;-83
2023/10/09 03:23:55;;;;;;;;;13.00;11.50;;;;;;;;5025404;28;10443;-83
2023/10/09 03:26:21;;;;;;;;;12.00;8.50;;;;;;;;5059275;28;8752;-83
2023/10/09 03:28:47;;;;;;;;;11.50;8.25;;;;;;;;5044940;28;10664;-84
2023/10/09 03:31:12;;;;;;;;;17.75;12.75;;;;;;;;5043874;28;8730;-84
2023/10/09 03:33:38;;;;;;;;;9.50;9.50;;;;;;;;5046098;28;8793;-83
2023/10/09 03:36:07;;;;;;;;;11.00;9.00;;;;;;;;5065416;28;8810;-84
2023/10/09 03:38:34;;;;;;;;;12.50;8.00;;;;;;;;5065001;28;8783;-84
2023/10/09 03:41:06;;;;;;;;;13.50;8.25;;;;;;;;5063533;28;10405;-84
2023/10/09 03:43:37;;;;;;;;;8.25;7.75;;;;;;;;5045426;28;10449;-83
2023/10/09 03:46:04;;;;;;;;;12.75;7.50;;;;;;;;5047158;28;10417;-84
2023/10/09 03:48:33;;;;;;;;;8.00;7.00;;;;;;;;5064191;28;10448;-84
2023/10/09 03:51:08;;;;;;;;;9.25;9.00;;;;;;;;5065170;28;11201;-84
2023/10/09 03:53:39;;;;;;;;;8.00;6.00;;;;;;;;5046823;28;10177;-84
2023/10/09 03:56:15;;;;;;;;;9.00;8.50;;;;;;;;5046761;28;10297;-84
2023/10/09 03:58:44;;;;;;;;;12.50;7.75;;;;;;;;5064325;28;10486;-84
2023/10/09 04:01:58;;;;;;;;;14.25;10.00;;;;;;;;5051663;28;10299;-83
2023/10/09 04:04:00;;;;;;;;;11.25;7.00;;;;;;;;5053962;28;10438;-84
2023/10/09 04:06:37;;;;;;;;;12.25;7.25;;;;;;;;5064696;28;10343;-84
2023/10/09 04:11:56;;;;;;;;;7.25;6.25;;;;;;;;5057518;28;10268;-83
2023/10/09 04:14:26;;;;;;;;;9.75;8.75;;;;;;;;5018012;28;10467;-84
2023/10/09 04:16:51;;;;;;;;;9.50;7.50;;;;;;;;5054056;28;10521;-84
2023/10/09 04:19:21;;;;;;;;;10.00;7.25;;;;;;;;5037888;28;10579;-84
2023/10/09 04:21:48;;;;;;;;;12.25;9.50;;;;;;;;5022930;28;9711;-84
2023/10/09 04:26:44;;;;;;;;;19.75;11.50;;;;;;;;5043442;28;10439;-83
2023/10/09 04:29:10;;;;;;;;;11.75;8.50;;;;;;;;5042274;28;8933;-84
2023/10/09 04:31:37;;;;;;;;;11.00;9.00;;;;;;;;5043412;28;10573;-84
2023/10/09 04:36:49;;;;;;;;;11.50;11.00;;;;;;;;5043859;28;10589;-84
2023/10/09 04:39:16;;;;;;;;;12.50;10.75;;;;;;;;5051693;28;10721;-83
2023/10/09 04:44:18;;;;;;;;;11.50;9.25;;;;;;;;5042879;28;10751;-84
2023/10/09 04:49:45;;;;;;;;;14.25;10.00;;;;;;;;5023975;28;10763;-83
2023/10/09 04:52:19;;;;;;;;;10.50;8.50;;;;;;;;5039945;28;10390;-81
2023/10/09 04:57:29;;;;;;;;;9.00;8.25;;;;;;;;5038792;28;10647;-82
2023/10/09 04:59:58;;;;;;;;;11.00;10.00;;;;;;;;5032257;28;10651;-83
2023/10/09 05:02:23;;;;;;;;;16.00;12.75;;;;;;;;5061390;28;8789;-82
2023/10/09 05:05:15;;;;;;;;;12.50;10.00;;;;;;;;5054492;28;11664;-83
2023/10/09 05:10:24;;;;;;;;;12.75;10.00;;;;;;;;5058713;28;10849;-80
2023/10/09 05:12:56;;;;;;;;;14.25;10.50;;;;;;;;5042216;28;10724;-80
2023/10/09 05:15:26;;;;;;;;;11.50;9.00;;;;;;;;5043389;28;10582;-79
2023/10/09 05:17:56;;;;;;;;;13.25;9.00;;;;;;;;5041736;28;10830;-82
2023/10/09 05:23:23;;;;;;;;;16.25;9.00;;;;;;;;5045789;28;10689;-79
2023/10/09 05:25:58;;;;;;;;;12.25;11.25;;;;;;;;5043390;28;10661;-78
2023/10/09 05:28:48;;;;;;;;;15.75;9.25;;;;;;;;5024859;28;10693;-77
2023/10/09 05:31:44;;;;;;;;;12.25;9.25;;;;;;;;5022376;28;10700;-82
2023/10/09 05:34:01;;;;;;;;;12.00;9.75;;;;;;;;5022694;28;10773;-79
2023/10/09 05:38:59;;;;;;;;;15.25;11.50;;;;;;;;5039843;28;10718;-80
2023/10/09 05:42:07;;;;;;;;;11.00;9.00;;;;;;;;5042130;28;8831;-85
2023/10/09 05:53:05;;;;;;;;;11.75;8.75;;;;;;;;5042133;28;10742;-86
2023/10/09 05:58:53;;;;;;;;;7.50;6.50;;;;;;;;5036472;28;10711;-86
2023/10/09 06:03:23;;;;;;;;;10.75;8.75;;;;;;;;5034157;28;10645;-85
2023/10/09 06:08:26;;;;;;;;;11.50;9.00;;;;;;;;5025720;28;10657;-86
2023/10/09 06:11:05;;;;;;;;;12.00;7.75;;;;;;;;5032485;28;10623;-83
2023/10/09 06:13:37;;;;;;;;;11.25;10.25;;;;;;;;5046500;28;10798;-84
2023/10/09 06:16:19;;;;;;;;;10.50;9.00;;;;;;;;5036680;28;10594;-80
2023/10/09 06:18:53;;;;;;;;;19.25;15.00;;;;;;;;5032313;28;10609;-87
2023/10/09 06:21:39;;;;;;;;;17.00;14.00;;;;;;;;5057480;28;10452;-84
2023/10/09 06:26:35;;;;;;;;;17.25;11.50;;;;;;;;5042270;28;10643;-83
2023/10/09 06:29:17;;;;;;;;;9.25;8.75;;;;;;;;5031668;28;10591;-85
2023/10/09 06:31:58;;;;;;;;;6.50;6.25;;;;;;;;5044838;28;8751;-82
2023/10/09 06:34:32;;;;;;;;;14.75;9.00;;;;;;;;5041744;28;10942;-83
2023/10/09 06:42:56;;;;;;;;;14.25;9.00;;;;;;;;4910410;29;10643;-78
2023/10/09 06:45:28;;;;;;;;;15.50;11.25;;;;;;;;4916844;29;10976;-78
2023/10/09 06:47:55;;;;;;;;;11.25;9.00;;;;;;;;4904233;29;8815;-75
2023/10/09 06:53:19;;;;;;;;;9.25;6.75;;;;;;;;4918659;29;10860;-79
2023/10/09 06:55:50;;;;;;;;;13.25;7.00;;;;;;;;4917951;29;8931;-78
2023/10/09 06:58:22;;;;;;;;;15.25;11.25;;;;;;;;4905730;29;10661;-80
2023/10/09 07:03:34;;;;;;;;;11.00;10.25;;;;;;;;4924770;29;10623;-81
2023/10/09 07:06:09;;;;;;;;;14.25;8.25;;;;;;;;4925811;29;10858;-81
2023/10/09 07:08:38;;;;;;;;;12.50;11.00;;;;;;;;4925349;29;10486;-81
2023/10/09 07:13:55;;;;;;;;;12.75;11.00;;;;;;;;4908562;29;10469;-81
2023/10/09 07:16:24;;;;;;;;;12.00;10.75;;;;;;;;4943960;29;10557;-81
2023/10/09 07:18:49;;;;;;;;;10.75;7.50;;;;;;;;4959207;28;10791;-81
2023/10/09 07:21:18;;;;;;;;;14.75;12.00;;;;;;;;4986808;28;10627;-81
2023/10/09 07:23:49;;;;;;;;;8.50;8.50;;;;;;;;5002783;28;8823;-81
2023/10/09 07:26:25;;;;;;;;;11.75;9.25;;;;;;;;4985871;28;10466;-81
2023/10/09 07:29:00;;;;;;;;;18.00;10.50;;;;;;;;5002484;28;10199;-81
2023/10/09 07:31:27;;;;;;;;;10.25;10.25;;;;;;;;5002954;28;10674;-82
2023/10/09 07:33:59;;;;;;;;;15.50;15.00;;;;;;;;5002406;28;10518;-81
2023/10/09 07:36:34;;;;;;;;;14.50;11.50;;;;;;;;4986539;28;10731;-81
2023/10/09 07:38:59;;;;;;;;;19.00;13.00;;;;;;;;5002257;28;10394;-81
2023/10/09 07:43:57;;;;;;;;;16.25;15.25;;;;;;;;5016560;28;8804;-81
2023/10/09 07:49:09;;;;;;;;;15.00;11.75;;;;;;;;5022322;28;8769;-81
2023/10/09 07:51:36;;;;;;;;;15.00;13.50;;;;;;;;5037146;28;10661;-81
2023/10/09 07:54:07;;;;;;;;;21.50;14.00;;;;;;;;5063721;28;10471;-81
2023/10/09 07:56:45;;;;;;;;;21.50;16.75;;;;;;;;5046197;28;10737;-81
2023/10/09 07:59:11;;;;;;;;;27.75;22.50;;;;;;;;5046142;28;10772;-81
2023/10/09 08:01:52;;;;;;;;;25.25;19.75;;;;;;;;5064426;28;10891;-81
2023/10/09 08:04:37;;;;;;;;;25.25;22.00;;;;;;;;5046069;28;11407;-81
2023/10/09 08:07:06;;;;;;;;;25.00;20.50;;;;;;;;5045870;28;11502;-80
2023/10/09 08:09:47;;;;;;;;;25.50;19.50;;;;;;;;5045555;28;11273;-82
2023/10/09 08:15:20;;;;;;;;;21.00;17.50;;;;;;;;5064324;28;10906;-81
2023/10/09 08:17:53;;;;;;;;;20.25;14.50;;;;;;;;5068826;28;11010;-82
2023/10/09 08:20:24;;;;;;;;;22.75;17.00;;;;;;;;5067100;28;10672;-82
2023/10/09 08:22:52;;;;;;;;;19.50;16.25;;;;;;;;5063556;28;10792;-81
2023/10/09 08:25:26;;;;;;;;;19.50;14.25;;;;;;;;5054838;28;10672;-82
2023/10/09 08:27:55;;;;;;;;;23.00;18.00;;;;;;;;5026029;28;10812;-81
2023/10/09 08:36:07;;;;;;;;;11.00;10.75;;;;;;;;5001825;28;10413;-82
2023/10/09 08:38:36;;;;;;;;;16.00;14.00;;;;;;;;5001407;28;10464;-82
2023/10/09 08:41:15;;;;;;;;;13.50;10.50;;;;;;;;5001113;28;10453;-82
2023/10/09 08:43:47;;;;;;;;;10.25;10.00;;;;;;;;4984323;28;10480;-82
2023/10/09 08:46:17;;;;;;;;;12.00;10.00;;;;;;;;5001604;28;10338;-81
2023/10/09 08:48:43;;;;;;;;;10.50;10.25;;;;;;;;5002066;28;10505;-81
2023/10/09 08:51:08;;;;;;;;;14.75;12.00;;;;;;;;5001336;28;10689;-81
2023/10/09 08:53:34;;;;;;;;;12.25;9.50;;;;;;;;5001099;28;8822;-81
2023/10/09 08:55:59;;;;;;;;;11.75;11.25;;;;;;;;5001450;28;8790;-82
2023/10/09 08:58:26;;;;;;;;;10.25;8.25;;;;;;;;5001446;28;8818;-81
2023/10/09 09:00:52;;;;;;;;;11.75;8.25;;;;;;;;5001460;28;8803;-82
2023/10/09 09:03:18;;;;;;;;;13.75;10.50;;;;;;;;5001442;28;10337;-81
2023/10/09 09:05:51;;;;;;;;;12.25;11.00;;;;;;;;5006645;28;8742;-82
2023/10/09 09:08:25;;;;;;;;;9.25;8.00;;;;;;;;5042706;28;10397;-82
2023/10/09 09:11:11;;;;;;;;;14.25;13.00;;;;;;;;5043240;28;10251;-82
2023/10/09 09:13:36;;;;;;;;;10.75;8.75;;;;;;;;5024313;28;10199;-82
2023/10/09 09:16:02;;;;;;;;;8.75;8.75;;;;;;;;5024712;28;10188;-82
2023/10/09 09:18:37;;;;;;;;;16.00;9.00;;;;;;;;5043484;28;8783;-82
2023/10/09 09:21:21;;;;;;;;;12.25;11.00;;;;;;;;5024370;28;10367;-82
2023/10/09 09:23:54;;;;;;;;;13.50;10.75;;;;;;;;5025369;28;10382;-82
2023/10/09 09:26:34;;;;;;;;;13.50;11.50;;;;;;;;5024903;28;10469;-83
2023/10/09 09:28:59;;;;;;;;;10.00;9.50;;;;;;;;5042564;28;10365;-82
2023/10/09 09:31:24;;;;;;;;;14.50;10.75;;;;;;;;5043128;28;10143;-82
2023/10/09 09:33:58;;;;;;;;;8.25;7.25;;;;;;;;5043127;28;8834;-82
2023/10/09 09:36:28;;;;;;;;;16.25;11.75;;;;;;;;5041066;28;8791;-82
2023/10/09 09:39:01;;;;;;;;;15.75;12.00;;;;;;;;5042584;28;10262;-83
2023/10/09 09:41:26;;;;;;;;;15.25;11.00;;;;;;;;5038041;28;10370;-82
2023/10/09 09:44:01;;;;;;;;;10.25;9.00;;;;;;;;5004143;28;10505;-83
2023/10/09 09:46:35;;;;;;;;;15.00;11.00;;;;;;;;5022865;28;8734;-82
2023/10/09 09:49:01;;;;;;;;;8.00;7.25;;;;;;;;5021435;28;10451;-82
2023/10/09 09:51:29;;;;;;;;;12.75;11.00;;;;;;;;5021187;28;10217;-83
2023/10/09 09:53:55;;;;;;;;;14.75;11.75;;;;;;;;5022978;28;10124;-83
2023/10/09 09:56:21;;;;;;;;;12.75;10.75;;;;;;;;5022510;28;10228;-82
2023/10/09 09:58:53;;;;;;;;;14.00;9.00;;;;;;;;5021065;28;10047;-82
2023/10/09 10:01:25;;;;;;;;;9.75;8.50;;;;;;;;5022745;28;10027;-82
2023/10/09 10:04:04;;;;;;;;;10.25;9.00;;;;;;;;5022757;28;9983;-82
2023/10/09 10:06:32;;;;;;;;;7.50;6.00;;;;;;;;5004981;28;10074;-82
2023/10/09 10:08:58;;;;;;;;;9.25;7.50;;;;;;;;5022667;28;10317;-83
2023/10/09 10:11:44;;;;;;;;;12.00;9.75;;;;;;;;5005053;28;10141;-82
2023/10/09 10:14:11;;;;;;;;;8.00;6.50;;;;;;;;5021618;28;8730;-82
2023/10/09 10:16:55;;;;;;;;;12.00;8.25;;;;;;;;5022947;28;9946;-82
2023/10/09 10:21:49;;;;;;;;;14.50;9.00;;;;;;;;5022621;28;10111;-82
2023/10/09 10:24:51;;;;;;;;;10.25;7.25;;;;;;;;5022867;28;8776;-82
2023/10/09 10:27:26;;;;;;;;;9.00;8.00;;;;;;;;5023148;28;9797;-82
2023/10/09 10:30:10;;;;;;;;;10.25;9.25;;;;;;;;5008466;28;10295;-82
2023/10/09 10:32:51;;;;;;;;;5.00;5.00;;;;;;;;5026006;28;9970;-82
2023/10/09 10:35:17;;;;;;;;;6.50;4.50;;;;;;;;5025238;28;9866;-82
2023/10/09 10:37:51;;;;;;;;;8.00;6.25;;;;;;;;5026248;28;9746;-82
2023/10/09 10:40:38;;;;;;;;;3.50;3.00;;;;;;;;5025914;28;8750;-82
2023/10/09 10:43:09;;;;;;;;;7.00;5.25;;;;;;;;5024523;28;9809;-82
2023/10/09 10:45:35;;;;;;;;;6.75;4.25;;;;;;;;5061349;28;9530;-82
2023/10/09 10:48:06;;;;;;;;;2.50;2.50;;;;;;;;5065188;28;10536;-82
2023/10/09 10:53:14;;;;;;;;;3.00;3.00;;;;;;;;5045463;28;9649;-82
2023/10/09 10:55:56;;;;;;;;;6.25;3.00;;;;;;;;5043986;28;8862;-82
2023/10/09 10:58:47;;;;;;;;;3.50;2.25;;;;;;;;5045260;28;9711;-82
2023/10/09 11:01:13;;;;;;;;;3.75;3.25;;;;;;;;5045308;28;9659;-82
2023/10/09 11:03:55;;;;;;;;;4.00;2.67;;;;;;;;5043564;28;9484;-82
2023/10/09 11:06:37;;;;;;;;;3.25;3.00;;;;;;;;5043777;28;9401;-82
2023/10/09 11:09:20;;;;;;;;;3.00;2.00;;;;;;;;5027611;28;9507;-82
2023/10/09 11:11:47;;;;;;;;;3.25;3.25;;;;;;;;5047845;28;9787;-81
2023/10/09 11:14:17;;;;;;;;;4.75;3.75;;;;;;;;5033449;28;9559;-82
2023/10/09 11:16:42;;;;;;;;;4.50;4.00;;;;;;;;5044916;28;10564;-82
2023/10/09 11:24:36;;;;;;;;;4.33;2.67;;;;;;;;5044391;28;9427;-82
2023/10/09 11:27:18;;;;;;;;;5.00;5.00;;;;;;;;5038321;28;9385;-82
2023/10/09 11:29:52;;;;;;;;;6.33;4.67;;;;;;;;5062008;28;9425;-82
2023/10/09 11:32:22;;;;;;;;;4.67;4.67;;;;;;;;5024796;28;9528;-82
2023/10/09 11:34:54;;;;;;;;;6.00;6.00;;;;;;;;5025120;28;10371;-82
2023/10/09 11:39:55;;;;;;;;;4.00;3.00;;;;;;;;5024772;28;9465;-82
2023/10/09 11:42:35;;;;;;;;;5.33;4.33;;;;;;;;5023279;28;9492;-82
2023/10/09 11:45:04;;;;;;;;;4.33;4.00;;;;;;;;5023700;28;8804;-83
2023/10/09 11:47:34;;;;;;;;;3.67;3.67;;;;;;;;5006384;28;9281;-82
2023/10/09 11:52:35;;;;;;;;;5.33;4.00;;;;;;;;5024573;28;9429;-83
2023/10/09 11:55:00;;;;;;;;;5.00;4.67;;;;;;;;5024866;28;9116;-83
2023/10/09 11:57:35;;;;;;;;;6.33;5.67;;;;;;;;5023144;28;9264;-82
2023/10/09 12:00:01;;;;;;;;;4.00;3.00;;;;;;;;5027315;28;8817;-83
2023/10/09 12:02:26;;;;;;;;;6.67;4.00;;;;;;;;5026684;28;9894;-83
2023/10/09 12:04:51;;;;;;;;;3.67;3.33;;;;;;;;5045974;28;8849;-82
2023/10/09 12:07:20;;;;;;;;;3.33;3.00;;;;;;;;5064812;28;8824;-82
2023/10/09 12:09:45;;;;;;;;;4.67;4.00;;;;;;;;5052793;28;8783;-83
2023/10/09 12:12:11;;;;;;;;;6.00;4.33;;;;;;;;5044294;28;9356;-82
2023/10/09 12:14:37;;;;;;;;;4.67;4.67;;;;;;;;5041629;28;8856;-82
2023/10/09 12:17:06;;;;;;;;;7.67;5.33;;;;;;;;5044677;28;8763;-83
2023/10/09 12:19:35;;;;;;;;;3.00;3.00;;;;;;;;5044131;28;9205;-83
2023/10/09 12:22:03;;;;;;;;;4.00;4.00;;;;;;;;5044388;28;9220;-83
2023/10/09 12:24:29;;;;;;;;;5.00;5.00;;;;;;;;5042739;28;9145;-82
2023/10/09 12:26:54;;;;;;;;;6.00;4.67;;;;;;;;5043960;28;9288;-83
2023/10/09 12:29:20;;;;;;;;;8.33;4.67;;;;;;;;5042111;28;8852;-83
2023/10/09 12:31:45;;;;;;;;;5.67;5.67;;;;;;;;5043788;28;8798;-83
2023/10/09 12:34:15;;;;;;;;;6.33;4.33;;;;;;;;5018227;28;8983;-83
2023/10/09 12:36:43;;;;;;;;;5.33;3.67;;;;;;;;5022862;28;8781;-83
2023/10/09 12:39:17;;;;;;;;;5.67;4.67;;;;;;;;5045673;28;9151;-83
2023/10/09 12:41:42;;;;;;;;;4.67;2.00;;;;;;;;5025883;28;10241;-83
2023/10/09 12:44:14;;;;;;;;;5.33;5.00;;;;;;;;5042387;28;9025;-82
2023/10/09 12:46:39;;;;;;;;;5.00;3.00;;;;;;;;5022445;28;8796;-83
2023/10/09 12:49:05;;;;;;;;;4.33;4.00;;;;;;;;5030921;28;9029;-83
2023/10/09 12:51:31;;;;;;;;;5.67;4.33;;;;;;;;5023147;28;8808;-83
2023/10/09 12:54:01;;;;;;;;;4.00;2.67;;;;;;;;5023634;28;8868;-83
2023/10/09 12:56:32;;;;;;;;;6.00;3.50;;;;;;;;5036046;28;8958;-83
2023/10/09 12:59:00;;;;;;;;;6.67;4.00;;;;;;;;5030939;28;8793;-83
2023/10/09 13:01:25;;;;;;;;;7.00;4.00;;;;;;;;5043340;28;8933;-83
2023/10/09 13:03:51;;;;;;;;;4.67;4.33;;;;;;;;5058864;28;9040;-83
2023/10/09 13:06:23;;;;;;;;;4.33;3.67;;;;;;;;5043583;28;8775;-83
2023/10/09 13:08:49;;;;;;;;;6.50;5.00;;;;;;;;5058584;28;8868;-83
2023/10/09 13:11:17;;;;;;;;;10.33;6.00;;;;;;;;5025793;28;8953;-83
2023/10/09 13:13:43;;;;;;;;;4.50;3.25;;;;;;;;5042056;28;8708;-83
2023/10/09 13:16:14;;;;;;;;;6.67;4.67;;;;;;;;5025825;28;8781;-84
2023/10/09 13:18:49;;;;;;;;;8.67;5.00;;;;;;;;5025330;28;11404;-84
2023/10/09 13:21:16;;;;;;;;;4.25;2.75;;;;;;;;5025438;28;10361;-83
2023/10/09 13:23:46;;;;;;;;;4.33;4.33;;;;;;;;5025461;28;8736;-83
2023/10/09 13:26:34;;;;;;;;;5.75;4.75;;;;;;;;5043434;28;8921;-84
2023/10/09 13:28:57;;;;;;;;;3.75;3.75;;;;;;;;5046066;28;9761;-83
2023/10/09 13:31:26;;;;;;;;;6.00;4.00;;;;;;;;5063013;28;8796;-83
2023/10/09 13:33:54;;;;;;;;;5.00;5.00;;;;;;;;5062751;28;9989;-83
2023/10/09 13:36:26;;;;;;;;;4.50;4.50;;;;;;;;5063089;28;8820;-83
2023/10/09 13:38:53;;;;;;;;;5.00;4.00;;;;;;;;5044751;28;8760;-83
2023/10/09 13:41:18;;;;;;;;;7.25;4.00;;;;;;;;5063333;28;8821;-83
2023/10/09 13:43:44;;;;;;;;;4.33;4.00;;;;;;;;5054284;28;8783;-83
2023/10/09 13:46:09;;;;;;;;;5.00;5.00;;;;;;;;5042224;28;8834;-82
2023/10/09 13:48:38;;;;;;;;;7.67;5.67;;;;;;;;5053660;28;8871;-83
2023/10/09 13:51:08;;;;;;;;;5.33;4.33;;;;;;;;5062845;28;8722;-83
2023/10/09 13:53:44;;;;;;;;;4.67;4.33;;;;;;;;5044871;28;8838;-83
2023/10/09 13:56:14;;;;;;;;;5.50;4.75;;;;;;;;5044246;28;8861;-83
2023/10/09 13:58:42;;;;;;;;;5.00;5.00;;;;;;;;5062439;28;8836;-83
2023/10/09 14:01:08;;;;;;;;;7.25;4.00;;;;;;;;5044303;28;10094;-83
2023/10/09 14:03:33;;;;;;;;;5.67;5.67;;;;;;;;5062790;28;8761;-83
2023/10/09 14:06:10;;;;;;;;;6.00;5.00;;;;;;;;5062728;28;8772;-83
2023/10/09 14:08:36;;;;;;;;;4.67;4.67;;;;;;;;5063056;28;8883;-83
2023/10/09 14:11:03;;;;;;;;;6.67;5.00;;;;;;;;5032225;28;10089;-83
2023/10/09 14:13:29;;;;;;;;;5.00;3.00;;;;;;;;5040356;28;8795;-83
2023/10/09 14:15:54;;;;;;;;;6.00;5.00;;;;;;;;5042770;28;8887;-83
2023/10/09 14:18:20;;;;;;;;;6.00;3.00;;;;;;;;5042543;28;8837;-83
2023/10/09 14:20:46;;;;;;;;;4.25;4.25;;;;;;;;5042598;28;8763;-83
2023/10/09 14:23:20;;;;;;;;;5.00;4.00;;;;;;;;5042273;28;8723;-83
2023/10/09 14:25:49;;;;;;;;;6.00;3.75;;;;;;;;5037105;28;8749;-83
2023/10/09 14:28:18;;;;;;;;;5.00;4.00;;;;;;;;5035916;28;8739;-83
2023/10/09 14:30:44;;;;;;;;;5.75;4.25;;;;;;;;5042551;28;8743;-83
2023/10/09 14:33:13;;;;;;;;;3.25;3.00;;;;;;;;5042400;28;8751;-83
2023/10/09 14:35:42;;;;;;;;;8.00;4.00;;;;;;;;5042300;28;8779;-84
2023/10/09 14:38:13;;;;;;;;;8.00;6.75;;;;;;;;5042141;28;8807;-83
2023/10/09 14:40:45;;;;;;;;;4.25;4.25;;;;;;;;5053704;28;10593;-83
2023/10/09 14:43:18;;;;;;;;;2.75;2.75;;;;;;;;5003213;28;8886;-83
2023/10/09 14:45:53;;;;;;;;;5.25;4.00;;;;;;;;5004145;28;8822;-83
2023/10/09 14:48:19;;;;;;;;;8.75;3.25;;;;;;;;5021254;28;8762;-82
2023/10/09 14:50:52;;;;;;;;;2.67;2.67;;;;;;;;5045146;28;8771;-83
2023/10/09 14:53:19;;;;;;;;;3.75;3.75;;;;;;;;5041951;28;8810;-83
2023/10/09 14:55:45;;;;;;;;;7.75;5.25;;;;;;;;5049436;28;8873;-84
2023/10/09 14:58:11;;;;;;;;;6.33;6.33;;;;;;;;5044695;28;8935;-85
2023/10/09 15:00:36;;;;;;;;;6.00;4.67;;;;;;;;5031351;28;9976;-84
2023/10/09 15:03:04;;;;;;;;;8.33;4.33;;;;;;;;5051033;28;8890;-84
2023/10/09 15:05:34;;;;;;;;;4.50;4.25;;;;;;;;5050328;28;8734;-78
2023/10/09 15:08:00;;;;;;;;;5.67;5.67;;;;;;;;5051137;28;8767;-81
2023/10/09 15:10:27;;;;;;;;;6.33;4.33;;;;;;;;5048089;28;8956;-82
2023/10/09 15:12:53;;;;;;;;;5.50;5.50;;;;;;;;5049695;28;8889;-82
2023/10/09 15:15:21;;;;;;;;;7.00;5.00;;;;;;;;5053836;28;8789;-82
2023/10/09 15:17:47;;;;;;;;;7.00;5.33;;;;;;;;5060394;28;8770;-82
2023/10/09 15:20:13;;;;;;;;;7.00;6.00;;;;;;;;5052429;28;9056;-82
2023/10/09 15:22:42;;;;;;;;;7.00;5.75;;;;;;;;5054175;28;8840;-82
2023/10/09 15:25:07;;;;;;;;;4.33;4.00;;;;;;;;5053167;28;9759;-82
2023/10/09 15:27:34;;;;;;;;;5.67;4.67;;;;;;;;5036303;28;8890;-82
2023/10/09 15:29:59;;;;;;;;;4.67;4.67;;;;;;;;5057282;28;8795;-79
2023/10/09 15:32:25;;;;;;;;;7.00;5.00;;;;;;;;5033764;28;8973;-82
2023/10/09 15:34:56;;;;;;;;;5.00;5.00;;;;;;;;5050009;28;8790;-82
2023/10/09 15:37:22;;;;;;;;;4.00;4.00;;;;;;;;5048147;28;8743;-82
2023/10/09 15:39:49;;;;;;;;;5.33;5.33;;;;;;;;5035639;28;10242;-83
2023/10/09 15:42:16;;;;;;;;;6.33;6.33;;;;;;;;5050053;28;9040;-81
2023/10/09 15:44:41;;;;;;;;;9.00;7.33;;;;;;;;5064181;28;8967;-82
2023/10/09 15:47:08;;;;;;;;;5.00;5.00;;;;;;;;5058095;28;9016;-82
2023/10/09 15:49:33;;;;;;;;;6.00;5.00;;;;;;;;5050472;28;8822;-82
2023/10/09 15:52:01;;;;;;;;;6.33;4.00;;;;;;;;5053143;28;8808;-82
2023/10/09 15:54:27;;;;;;;;;9.00;6.33;;;;;;;;5053140;28;8738;-82
2023/10/09 15:56:54;;;;;;;;;6.33;6.33;;;;;;;;5053073;28;8896;-82
2023/10/09 15:59:20;;;;;;;;;6.00;6.00;;;;;;;;5051622;28;9309;-78
2023/10/09 16:01:46;;;;;;;;;7.00;7.00;;;;;;;;5036017;28;9080;-82
2023/10/09 16:04:11;;;;;;;;;10.00;7.33;;;;;;;;5051767;28;9106;-83
2023/10/09 16:06:39;;;;;;;;;7.67;6.33;;;;;;;;5052549;28;8805;-80
2023/10/09 16:09:06;;;;;;;;;5.33;5.00;;;;;;;;5053814;28;8833;-79
2023/10/09 16:11:33;;;;;;;;;8.00;6.00;;;;;;;;5055190;28;9045;-80
2023/10/09 16:13:59;;;;;;;;;10.00;6.00;;;;;;;;5053453;28;9019;-80
2023/10/09 16:16:28;;;;;;;;;4.00;4.00;;;;;;;;5053400;28;9105;-80
2023/10/09 16:18:54;;;;;;;;;6.67;5.00;;;;;;;;5032251;28;10930;-80
2023/10/09 16:21:24;;;;;;;;;5.67;4.33;;;;;;;;5034700;28;9007;-82
2023/10/09 16:23:50;;;;;;;;;7.33;6.33;;;;;;;;5051188;28;8899;-81
2023/10/09 16:26:16;;;;;;;;;16.67;10.33;;;;;;;;5030834;28;9100;-82
2023/10/09 16:28:42;;;;;;;;;7.33;5.00;;;;;;;;5049215;28;9744;-82
2023/10/09 16:31:13;;;;;;;;;9.00;7.00;;;;;;;;5031727;28;8967;-81
2023/10/09 16:33:38;;;;;;;;;6.00;4.00;;;;;;;;5036644;28;9110;-81
2023/10/09 16:36:04;;;;;;;;;6.00;5.00;;;;;;;;5052506;28;8982;-81
2023/10/09 16:38:29;;;;;;;;;7.67;6.33;;;;;;;;5051346;28;8804;-82
2023/10/09 16:40:55;;;;;;;;;6.33;5.00;;;;;;;;5054084;28;8805;-80